Latest Weather Observations for Walgett

IDN60801

Issued at 9:03 pm EST Tuesday 30 August 2016 (issued every 30 minutes, with the page automatically refreshed every 10 minutes)

About weather observations | Map of weather stations | Latest weather observations for NSW | Other Formats
Station Details ID: 052088 Name: WALGETT AIRPORT AWS Lat: -30.04 Lon: 148.12 Height: 133.0 m
Data from the previous 72 hours. | See also: Recent months at Walgett
Date/Time
EST
Temp
°C
App
Temp
°C
Dew
Point
°C
Rel
Hum
%
Delta-T
°C
Wind Press
QNH
hPa
Press
MSL
hPa
Rain since
9am
mm
Dir  Spd
km/h
Gust
km/h
Spd
kts
Gust
kts
30/09:00pm 17.4 15.5 11.7 69 3.1 NNE 13 19 7 10 1021.8 1021.8 0.0
30/08:30pm 16.9 14.7 12.0 73 2.7 NE 15 20 8 11 1021.5 1021.5 0.0
30/08:00pm 16.4 14.6 12.2 76 2.3 NE 13 17 7 9 1021.5 1021.5 0.0
30/07:30pm 16.7 14.5 12.0 74 2.6 NE 15 17 8 9 1021.3 1021.3 0.0
30/07:00pm 17.0 15.1 11.9 72 2.8 NE 13 15 7 8 1021.2 1021.2 0.0
30/06:30pm 17.7 16.3 11.0 65 3.6 NE 9 13 5 7 1021.0 1021.0 0.0
30/06:00pm 19.2 16.4 11.3 60 4.3 NNE 17 20 9 11 1020.8 1020.8 0.0
30/05:30pm 20.4 16.6 11.3 56 5.0 NNE 22 32 12 17 1020.6 1020.6 0.0
30/05:00pm 21.2 16.6 11.2 53 5.5 NNE 26 39 14 21 1020.6 1020.6 0.0
30/04:30pm 21.5 17.3 11.2 52 5.7 NNE 24 32 13 17 1020.5 1020.5 0.0
30/04:00pm 21.8 17.3 11.5 52 5.8 NNE 26 39 14 21 1020.5 1020.5 0.0
30/03:30pm 22.1 17.0 11.8 52 5.8 NNE 30 41 16 22 1020.8 1020.8 0.0
30/03:00pm 22.1 16.3 11.5 51 5.9 NNE 33 43 18 23 1021.0 1021.0 0.0
30/02:30pm 24.0 18.7 12.6 49 6.6 NNE 32 43 17 23 1021.5 1021.5 0.0
30/02:00pm 23.1 17.4 11.2 47 6.7 NNE 32 43 17 23 1021.7 1021.7 0.0
30/01:30pm 23.1 17.1 10.9 46 6.8 NNE 33 46 18 25 1022.2 1022.3 0.0
30/01:00pm 23.8 18.6 11.5 46 6.9 NNE 30 39 16 21 1022.7 1022.8 0.0
30/12:30pm 23.6 19.4 12.3 49 6.5 NNE 26 37 14 20 1023.1 1023.2 0.0
30/12:00pm 22.9 18.5 11.6 49 6.4 N 26 41 14 22 1023.4 1023.5 0.0
30/11:30am 22.7 17.9 11.7 49 6.2 NNE 28 37 15 20 1023.9 1024.0 0.0
30/11:00am 22.0 16.9 12.0 53 5.6 NNE 30 39 16 21 1024.4 1024.5 0.0
30/10:30am 21.4 16.7 12.0 55 5.3 NNE 28 39 15 21 1024.7 1024.8 0.0
30/10:00am 20.2 15.6 11.1 56 5.0 NNE 26 35 14 19 1024.7 1024.8 0.0
30/09:30am 19.2 14.8 11.7 62 4.2 NNE 26 35 14 19 1024.9 1025.0 0.0
30/09:00am 16.7 12.0 10.5 67 3.3 NNE 26 35 14 19 1024.6 1024.7 0.0
30/08:30am 16.2 10.6 10.1 67 3.2 NNE 30 39 16 21 1024.6 1024.7 0.0
30/08:00am 14.5 9.7 8.9 69 2.8 NNE 24 33 13 18 1024.8 1024.9 0.0
30/07:30am 13.6 9.2 8.9 73 2.4 NNE 22 32 12 17 1024.3 1024.4 0.0
30/07:00am 9.9 6.2 8.0 88 0.9 NE 17 19 9 10 1023.9 1024.0 0.0
30/06:30am 9.6 5.4 7.5 87 1.0 NE 19 22 10 12 1023.5 1023.6 0.0
30/06:00am 10.0 6.2 7.6 85 1.2 NE 17 20 9 11 1023.1 1023.2 0.0
30/05:30am 10.9 6.7 7.6 80 1.6 NE 19 26 10 14 1023.0 1023.1 0.0
30/05:00am 11.3 6.9 7.6 78 1.8 NE 20 30 11 16 1023.0 1023.1 0.0
30/04:30am 11.0 7.5 7.1 77 1.9 NE 15 20 8 11 1022.8 1022.9 0.0
30/04:00am 11.2 7.2 6.7 74 2.1 NE 17 22 9 12 1022.3 1022.4 0.0
30/03:30am 10.9 7.7 6.8 76 2.0 ENE 13 19 7 10 1021.9 1021.9 0.0
30/03:00am 10.3 7.7 6.1 75 2.0 ENE 9 11 5 6 1021.7 1021.7 0.0
30/02:30am 11.3 8.4 6.6 73 2.2 ENE 11 15 6 8 1022.0 1022.0 0.0
30/02:00am 10.8 8.3 6.6 75 2.0 E 9 11 5 6 1022.2 1022.3 0.0
30/01:30am 10.4 8.2 6.4 76 1.9 E 7 9 4 5 1022.4 1022.5 0.0
30/01:00am 10.1 8.0 6.8 80 1.6 E 7 9 4 5 1022.5 1022.6 0.0
30/12:30am 8.6 6.4 6.2 85 1.1 E 7 11 4 6 1022.4 1022.5 0.0
30/12:00am 8.4 6.3 6.0 85 1.1 ESE 6 7 3 4 1022.6 1022.7 0.0
 
Date/Time
EST
Temp
°C
App
Temp
°C
Dew
Point
°C
Rel
Hum
%
Delta-T
°C
Wind Press
QNH
hPa
Press
MSL
hPa
Rain since
9am
mm
Dir  Spd
km/h
Gust
km/h
Spd
kts
Gust
kts
29/11:30pm 9.5 7.3 6.2 80 1.5 SE 7 9 4 5 1022.6 1022.7 0.0
29/11:00pm 11.3 9.0 7.4 77 1.9 E 9 13 5 7 1022.2 1022.3 0.0
29/10:30pm 10.0 8.0 7.3 83 1.3 ESE 7 9 4 5 1022.6 1022.7 0.0
29/10:00pm 10.4 8.5 6.9 79 1.7 ESE 6 9 3 5 1023.0 1023.1 0.0
29/09:30pm 11.6 9.6 6.9 73 2.3 ESE 7 7 4 4 1022.8 1022.9 0.0
29/09:00pm 13.7 11.4 7.5 66 3.0 ENE 9 13 5 7 1022.8 1022.9 0.0
29/08:30pm 13.2 11.0 7.9 70 2.6 E 9 13 5 7 1022.6 1022.7 0.0
29/08:00pm 13.3 10.7 7.7 69 2.8 E 11 13 6 7 1022.6 1022.7 0.0
29/07:30pm 13.9 11.5 7.2 64 3.3 E 9 11 5 6 1022.9 1023.0 0.0
29/07:00pm 15.1 12.7 7.2 59 3.9 ENE 9 13 5 7 1022.8 1022.9 0.0
29/06:30pm 15.3 12.3 7.6 60 3.9 E 13 19 7 10 1022.3 1022.4 0.0
29/06:00pm 15.5 13.3 8.0 61 3.8 E 9 13 5 7 1022.8 1022.9 0.0
29/05:30pm 16.5 14.3 8.0 57 4.3 E 9 11 5 6 1022.5 1022.6 0.0
29/05:00pm 17.5 15.7 8.1 54 4.8 ENE 7 9 4 5 1022.7 1022.8 0.0
29/04:30pm 18.6 16.1 8.0 50 5.5 ENE 11 17 6 9 1022.3 1022.4 0.0
29/04:00pm 19.0 16.8 7.8 48 5.7 E 9 13 5 7 1022.7 1022.8 0.0
29/03:30pm 19.5 16.2 6.6 43 6.5 ENE 13 17 7 9 1022.2 1022.3 0.0
29/03:00pm 19.7 16.9 6.8 43 6.5 ENE 11 17 6 9 1022.7 1022.8 0.0
29/02:30pm 20.3 17.1 7.0 42 6.8 ENE 13 17 7 9 1023.3 1023.4 0.0
29/02:00pm 20.8 17.6 6.7 40 7.2 ENE 13 20 7 11 1023.0 1023.1 0.0
29/01:30pm 20.4 18.0 7.1 42 6.8 ENE 9 15 5 8 1023.4 1023.5 0.0
29/01:00pm 20.5 17.5 7.5 43 6.7 NE 13 20 7 11 1023.5 1023.6 0.0
29/12:30pm 20.0 16.9 7.4 44 6.5 NE 13 19 7 10 1024.1 1024.2 0.0
29/12:00pm 19.4 16.1 6.5 43 6.5 ENE 13 19 7 10 1024.4 1024.5 0.0
29/11:30am 19.5 16.7 8.5 49 5.8 NE 13 20 7 11 1024.5 1024.6 0.0
29/11:00am 17.8 14.0 5.7 45 5.9 ENE 15 22 8 12 1025.2 1025.2 0.0
29/10:30am 17.0 13.8 6.8 51 5.1 NE 13 19 7 10 1025.6 1025.6 0.0
29/10:00am 16.0 12.1 7.2 56 4.4 ENE 17 26 9 14 1025.4 1025.4 0.0
29/09:30am 14.5 11.4 7.3 62 3.6 ENE 13 19 7 10 1025.6 1025.6 0.0
29/09:00am 13.9 11.0 8.3 69 2.8 ENE 13 17 7 9 1025.5 1025.5 0.0
29/08:30am 11.7 9.3 7.2 74 2.2 ENE 9 17 5 9 1025.8 1025.8 0.0
29/08:00am 10.6 7.3 6.6 76 1.9 NE 13 17 7 9 1025.8 1025.8 0.0
29/07:30am 8.2 5.2 5.8 85 1.1 NE 11 15 6 8 1025.3 1025.3 0.0
29/07:00am 6.2 2.6 5.0 92 0.5 ENE 13 17 7 9 1024.4 1024.5 0.0
29/06:30am 3.8 -0.1 3.4 97 0.2 ENE 13 17 7 9 1024.0 1024.1 0.0
29/06:00am 2.1 -1.4 1.5 96 0.2 E 9 11 5 6 1023.9 1024.0 0.0
29/05:30am 0.8 -2.9 0.1 95 0.3 E 9 11 5 6 1023.8 1023.9 0.0
29/05:00am 0.2 -3.6 -0.5 95 0.3 E 9 11 5 6 1023.4 1023.5 0.0
29/04:30am 0.7 -3.0 0.0 95 0.3 E 9 9 5 5 1023.2 1023.3 0.0
29/04:00am 0.6 -1.8 -0.3 94 0.3 SE 2 6 1 3 1023.0 1023.1 0.0
29/03:30am 0.4 -2.4 -0.6 93 0.4 ESE 4 7 2 4 1023.4 1023.5 0.0
29/03:00am 0.6 -2.8 -0.4 93 0.4 ENE 7 9 4 5 1022.9 1023.0 0.0
29/02:30am 1.4 -1.6 0.5 94 0.3 SSE 6 7 3 4 1023.3 1023.4 0.0
29/02:00am 1.1 -0.9 -0.1 92 0.4 CALM 0 0 0 0 1023.0 1023.1 0.0
29/01:30am 1.6 -0.3 0.4 92 0.4 CALM 0 0 0 0 1023.3 1023.4 0.0
29/01:00am 1.6 -1.7 0.1 90 0.6 E 7 9 4 5 1023.3 1023.4 0.0
29/12:30am 3.2 0.7 1.7 90 0.6 ESE 4 6 2 3 1023.5 1023.6 0.0
29/12:00am 4.6 1.8 3.4 92 0.5 NNE 7 9 4 5 1023.4 1023.5 0.0
 
Date/Time
EST
Temp
°C
App
Temp
°C
Dew
Point
°C
Rel
Hum
%
Delta-T
°C
Wind Press
QNH
hPa
Press
MSL
hPa
Rain since
9am
mm
Dir  Spd
km/h
Gust
km/h
Spd
kts
Gust
kts
28/11:30pm 4.3 1.5 3.1 92 0.5 NE 7 7 4 4 1023.4 1023.5 0.0
28/11:00pm 4.2 1.5 2.7 90 0.6 ENE 6 9 3 5 1023.4 1023.5 0.0
28/10:30pm 4.5 1.9 3.2 91 0.5 E 6 7 3 4 1023.8 1023.9 0.0
28/10:00pm 4.7 2.0 2.9 88 0.7 E 6 7 3 4 1023.8 1023.9 0.0
28/09:30pm 5.2 2.4 3.2 87 0.8 E 7 9 4 5 1023.9 1024.0 0.0
28/09:00pm 6.9 4.6 4.9 87 0.9 E 6 7 3 4 1023.8 1023.9 0.0
28/08:30pm 6.4 3.7 3.7 83 1.2 E 7 9 4 5 1023.9 1024.0 0.0
28/08:00pm 8.2 6.3 5.1 81 1.4 E 4 6 2 3 1023.8 1023.9 0.0
28/07:30pm 8.1 5.7 4.1 76 1.8 ESE 6 7 3 4 1023.5 1023.6 0.0
28/07:00pm 11.4 8.6 5.3 66 2.8 ESE 9 11 5 6 1023.2 1023.3 0.0
28/06:30pm 11.8 9.5 5.7 66 2.9 E 7 9 4 5 1023.2 1023.3 0.0
28/06:00pm 13.2 10.5 5.4 59 3.7 ESE 9 13 5 7 1023.0 1023.1 0.0
28/05:30pm 15.0 11.8 5.2 52 4.7 SE 11 15 6 8 1022.7 1022.8 0.0
28/05:00pm 16.2 13.0 4.9 47 5.4 SE 11 15 6 8 1022.6 1022.7 0.0
28/04:30pm 16.9 14.0 4.6 44 5.9 SSE 9 13 5 7 1022.5 1022.6 0.0
28/04:00pm 17.0 14.1 4.7 44 5.8 SSE 9 17 5 9 1022.4 1022.5 0.0
28/03:30pm 16.9 13.6 4.3 43 6.0 SE 11 15 6 8 1022.3 1022.4 0.0
28/03:00pm 17.9 15.0 4.5 41 6.4 S 9 15 5 8 1022.7 1022.8 0.0
28/02:30pm 17.7 14.9 5.0 43 6.1 S 9 17 5 9 1022.8 1022.9 0.0
28/02:00pm 17.9 15.0 4.8 42 6.3 SE 9 17 5 9 1023.1 1023.2 0.0
28/01:30pm 18.3 15.5 5.2 42 6.4 SSE 9 17 5 9 1023.3 1023.4 0.0
28/01:00pm 17.5 14.4 3.8 40 6.4 S 9 13 5 7 1023.7 1023.8 0.0
28/12:30pm 17.4 14.9 4.7 43 6.1 ESE 7 13 4 7 1024.1 1024.2 0.0
28/12:00pm 16.8 13.8 4.2 43 5.9 ENE 9 17 5 9 1024.3 1024.4 0.0
28/11:30am 16.5 13.6 4.9 46 5.5 SSE 9 17 5 9 1025.2 1025.2 0.0
28/11:00am 15.5 12.5 4.3 47 5.2 SE 9 17 5 9 1025.6 1025.6 0.0
28/10:30am 15.2 12.5 5.4 52 4.7 ESE 9 19 5 10 1026.0 1026.0 0.0
28/10:00am 14.5 12.0 4.5 51 4.6 SE 7 11 4 6 1026.4 1026.4 0.0
28/09:30am 13.4 11.1 5.8 60 3.6 ESE 7 11 4 6 1026.5 1026.5 0.0
28/09:00am 11.9 9.8 6.8 71 2.4 E 7 7 4 4 1026.3 1026.3 0.0
28/08:30am 9.9 7.8 5.9 76 1.9 E 6 7 3 4 1026.3 1026.3 0.0
28/08:00am 7.1 4.9 5.1 87 0.9 E 6 7 3 4 1026.0 1026.0 0.0
28/07:30am 2.6 0.9 1.7 94 0.4 CALM 0 0 0 0 1025.5 1025.5 0.0
28/07:00am 0.8 -1.2 0.2 96 0.2 CALM 0 0 0 0 1025.3 1025.3 0.0
28/06:30am -0.1 -2.2 -0.7 96 0.2 CALM 0 0 0 0 1024.7 1024.8 0.0
28/06:19am -0.9 -3.1 -1.6 95 0.2 CALM 0 0 0 0 1024.4 1024.5 0.0
28/06:00am 0.1 -2.0 -0.5 96 0.2 CALM 0 0 0 0 1024.5 1024.6 0.0
28/05:30am -0.1 -2.2 -0.7 96 0.2 CALM 0 0 0 0 1024.0 1024.1 0.0
28/05:00am 0.6 -1.4 0.0 96 0.2 CALM 0 0 0 0 1023.7 1023.8 0.0
28/04:30am 0.0 -2.1 -0.7 95 0.3 CALM 0 0 0 0 1023.5 1023.6 0.0
28/04:00am 0.3 -1.7 -0.4 95 0.2 CALM 0 0 0 0 1023.4 1023.5 0.0
28/03:30am -0.1 -2.2 -0.9 94 0.3 CALM 0 0 0 0 1023.4 1023.5 0.0
28/03:00am 0.2 -1.9 -0.8 93 0.4 CALM 0 0 0 0 1023.4 1023.5 0.0
28/02:30am 0.9 -1.1 0.0 94 0.3 CALM 0 0 0 0 1023.5 1023.6 0.0
28/02:00am 1.2 -0.8 0.2 93 0.4 CALM 0 0 0 0 1024.2 1024.3 0.0
28/01:30am 1.8 0.0 0.9 94 0.3 CALM 0 0 0 0 1024.1 1024.2 0.0
28/01:00am 2.0 0.2 1.1 94 0.3 CALM 0 0 0 0 1024.4 1024.5 0.0
28/12:30am 1.8 -0.1 0.5 91 0.5 CALM 0 0 0 0 1024.5 1024.6 0.0
28/12:00am 2.4 0.6 1.2 92 0.5 CALM 0 0 0 0 1024.6 1024.7 0.0
 
Date/Time
EST
Temp
°C
App
Temp
°C
Dew
Point
°C
Rel
Hum
%
Delta-T
°C
Wind Press
QNH
hPa
Press
MSL
hPa
Rain since
9am
mm
Dir  Spd
km/h
Gust
km/h
Spd
kts
Gust
kts
27/11:30pm 2.9 1.2 1.6 91 0.5 CALM 0 0 0 0 1024.8 1024.9 0.0
27/11:00pm 2.9 1.2 1.7 92 0.5 CALM 0 0 0 0 1025.2 1025.2 0.0
27/10:30pm 2.5 0.7 0.9 89 0.6 CALM 0 0 0 0 1025.2 1025.2 0.0
27/10:00pm 4.1 2.5 2.3 88 0.7 CALM 0 0 0 0 1024.9 1025.0 0.0
27/09:30pm 4.4 2.8 2.4 87 0.8 CALM 0 0 0 0 1025.1 1025.1 0.0

Other Formats:

Comma delimited format used in spreadsheet applications
http://www.bom.gov.au/fwo/IDN60801/IDN60801.95715.axf

JavaScript Object Notation format (JSON) in row-major order
http://www.bom.gov.au/fwo/IDN60801/IDN60801.95715.json